Main page
METAR-TAF:

METAR-TAF

Airports :

Tunis–Carthage International Airport

Tunis, Tunisia

latitude: 36-50N, longitude: 010-14E, elevation: 3 m

Current weather observation

The report was made 28 minutes ago, at 07:30 UTC
Wind 6 kt from the South
Temperature 8°C
Humidity 81%
Pressure 1014 hPa
Visibility 10 km or more
Few clouds at a height of 2600 ft

METAR: DTTA 200730Z 18006KT 9999 FEW026 08/05 Q1014 NOSIG

Time: 08:58 (07:58 UTC)

Forecast

The report was made 2 hours and 58 minutes ago, at 05:00 UTC
Forecast valid from 20 at 06 UTC to 21 at 06 UTC
Wind 4 kt from the South/Southwest
Visibility 10 km or more
Scattered clouds at a height of 2600 ft
Becoming
from 20 at 10 UTC to 20 at 12 UTC
Wind 8 kt from the Southwest

TAF: DTTA 200500Z 2006/2106 20004KT 9999 SCT026 BECMG 2010/2012 22008KT

Weather observations and forecasts of more than 4000 airports (METAR and TAF reports).

The available stations are represented by yellow and red dots on the map.

Hover mouse over dot to see the name of the station.

Then click to see weather observations and forecasts.

To change the map : click on the green buttons with a black cross to zoom in, on the green button with a dash to zoom out, or on the green arrows for adjacent maps.


METAR-TAF: